OOCL Hamburg — VRZK9 — position and weather

sailwx.info

Track history (hours):
 
Tides and Currents Weather Stations Pressure Air Temp Water Temp Dewpoint Dewpoint Depression Visibility Wind Speed Wind Dir Waves Ship Positions

OOCL Hamburg

Last reported at 2014-Oct-17 19:21 UTC. Time now 2014-Oct-21 08:45 UTC.
Position N 36°10' W 026°21'.

Length 323 m; beam 42.8 m; draft 14.5 m.

Type: Cargo ship. MMSI: 477702000.

Date/timePositionNaut miles runAvg speedWind from/ knotsBaromVisibWave heightAir tempDewpointWater temp
2014-Oct-17 19:21N 36°10' W 026°21'1418.3
2014-Oct-17 18:33N 36°09' W 026°03'1918.8
2014-Oct-17 17:33N 36°08' W 025°40'1919.1
2014-Oct-17 16:34N 36°06' W 025°16'1918.8
2014-Oct-17 15:33N 36°05' W 024°53'1919.3
2014-Oct-17 14:34N 36°05' W 024°29'2019.5
2014-Oct-17 13:33N 36°05' W 024°05'89618.9
2014-Oct-15 14:15N 35°58' W 005°37'1216.9
2014-Oct-15 13:33N 36°00' W 005°23'66519.9
2014-Oct-14 04:12N 37°39' E 008°19'3720.8
2014-Oct-14 02:25N 37°43' E 009°06'2020.4
2014-Oct-14 01:28N 37°41' E 009°30'6120.1
2014-Oct-13 22:26N 37°32' E 010°46'9020.7
2014-Oct-13 18:04N 36°53' E 012°28'  
2014-Oct-10 23:12N 29°47' E 032°33'1614.6
2014-Oct-10 22:05N 29°31' E 032°37'915.9
2014-Oct-10 21:32N 29°23' E 032°41'  
Track history (hours):
 
Tides and Currents Weather Stations Pressure Air Temp Water Temp Dewpoint Dewpoint Depression Visibility Wind Speed Wind Dir Waves Ship Positions

OOCL Hamburg

Last reported at 2014-Oct-17 19:21 UTC. Time now 2014-Oct-21 08:45 UTC.
Position N 36°10' W 026°21'.

Length 323 m; beam 42.8 m; draft 14.5 m.

Type: Cargo ship. MMSI: 477702000.

Date/timePositionNaut miles runAvg speedWind from/ knotsBaromVisibWave heightAir tempDewpointWater temp
2014-Oct-17 19:21N 36°10' W 026°21'1418.3
2014-Oct-17 18:33N 36°09' W 026°03'1918.8
2014-Oct-17 17:33N 36°08' W 025°40'1919.1
2014-Oct-17 16:34N 36°06' W 025°16'1918.8
2014-Oct-17 15:33N 36°05' W 024°53'1919.3
2014-Oct-17 14:34N 36°05' W 024°29'2019.5
2014-Oct-17 13:33N 36°05' W 024°05'89618.9
2014-Oct-15 14:15N 35°58' W 005°37'1216.9
2014-Oct-15 13:33N 36°00' W 005°23'66519.9
2014-Oct-14 04:12N 37°39' E 008°19'3720.8
2014-Oct-14 02:25N 37°43' E 009°06'2020.4
2014-Oct-14 01:28N 37°41' E 009°30'6120.1
2014-Oct-13 22:26N 37°32' E 010°46'9020.7
2014-Oct-13 18:04N 36°53' E 012°28'  
2014-Oct-10 23:12N 29°47' E 032°33'1614.6
2014-Oct-10 22:05N 29°31' E 032°37'915.9
2014-Oct-10 21:32N 29°23' E 032°41'  

Dump ship's entire track history